Time;durP1;ratioP1;P1;durP2;ratioP2;P2;SDS_P1;SDS_P2;PMS_P1;PMS_P2;Temp;Humidity;BMP_temperature;BMP_pressure;BME280_temperature;BME280_humidity;BME280_pressure;Samples;Min_cycle;Max_cycle;Signal;HPM_P1;HPM_P2
2021/07/07 00:00:19;;;;;;;15.98;10.60;;;;;;;16.52;100.00;95744.06;1018887;29;20617;-69
2021/07/07 00:00:54;;;;;;;15.02;10.93;;;;;;;16.50;100.00;95733.78;1018412;29;20031;-69
2021/07/07 00:01:25;;;;;;;20.70;11.10;;;;;;;16.48;100.00;95741.25;1016783;29;20088;-70
2021/07/07 00:01:55;;;;;;;11.85;9.90;;;;;;;16.50;100.00;95739.09;1015095;29;20080;-69
2021/07/07 00:02:26;;;;;;;12.35;9.90;;;;;;;16.50;100.00;95735.66;1014823;29;20032;-69
2021/07/07 00:02:56;;;;;;;14.75;10.00;;;;;;;16.49;100.00;95734.09;1010974;29;20829;-68
2021/07/07 00:03:27;;;;;;;12.48;10.07;;;;;;;16.44;100.00;95735.00;1015113;29;20035;-69
2021/07/07 00:03:57;;;;;;;13.80;10.10;;;;;;;16.47;100.00;95734.38;1014803;29;20033;-69
2021/07/07 00:04:28;;;;;;;13.32;11.85;;;;;;;16.50;100.00;95733.00;1010746;29;20028;-70
2021/07/07 00:04:58;;;;;;;15.80;10.02;;;;;;;16.46;100.00;95732.03;1014801;29;20119;-69
2021/07/07 00:05:29;;;;;;;11.98;10.23;;;;;;;16.51;100.00;95742.53;1007219;29;20447;-69
2021/07/07 00:06:00;;;;;;;12.55;9.98;;;;;;;16.46;100.00;95732.84;1008640;29;20029;-69
2021/07/07 00:06:30;;;;;;;13.93;9.68;;;;;;;16.48;100.00;95735.16;1011030;29;20036;-69
2021/07/07 00:07:01;;;;;;;16.15;10.10;;;;;;;16.49;100.00;95731.44;1007128;29;20037;-69
2021/07/07 00:07:31;;;;;;;14.68;9.85;;;;;;;16.51;100.00;95737.22;1010346;29;20115;-70
2021/07/07 00:08:02;;;;;;;11.52;9.75;;;;;;;16.51;100.00;95737.22;1014821;29;20030;-69
2021/07/07 00:08:33;;;;;;;17.50;10.40;;;;;;;16.49;100.00;95728.78;1014968;29;20051;-69
2021/07/07 00:09:03;;;;;;;20.48;9.52;;;;;;;16.45;100.00;95730.47;1018026;29;20052;-69
2021/07/07 00:09:34;;;;;;;11.23;9.10;;;;;;;16.49;100.00;95728.78;1018725;29;20059;-69
2021/07/07 00:10:09;;;;;;;12.73;10.18;;;;;;;16.49;100.00;95731.44;1018843;29;20111;-69
2021/07/07 00:10:39;;;;;;;10.23;8.82;;;;;;;16.48;100.00;95729.88;1019466;29;20034;-69
2021/07/07 00:11:10;;;;;;;12.57;9.55;;;;;;;16.49;100.00;95726.13;1021579;29;20031;-69
2021/07/07 00:11:40;;;;;;;12.57;9.05;;;;;;;16.49;100.00;95732.22;1018920;29;20047;-69
2021/07/07 00:12:10;;;;;;;12.95;9.57;;;;;;;16.50;100.00;95723.19;1018933;29;20039;-70
2021/07/07 00:12:41;;;;;;;13.15;10.18;;;;;;;16.49;100.00;95723.47;1022330;29;20028;-67
2021/07/07 00:13:12;;;;;;;14.88;10.63;;;;;;;16.52;100.00;95724.75;1022876;29;20031;-69
2021/07/07 00:13:42;;;;;;;14.38;10.55;;;;;;;16.52;100.00;95730.06;1018822;29;20036;-69
2021/07/07 00:14:15;;;;;;;14.82;9.95;;;;;;;16.50;100.00;95719.78;1010787;29;20489;-70
2021/07/07 00:14:46;;;;;;;11.93;9.63;;;;;;;16.49;100.00;95721.63;1010761;29;20065;-69
2021/07/07 00:15:18;;;;;;;12.95;9.18;;;;;;;16.48;100.00;95719.28;1011467;29;20509;-69
2021/07/07 00:15:49;;;;;;;14.73;10.77;;;;;;;16.50;100.00;95717.13;1018761;29;20035;-69
2021/07/07 00:16:19;;;;;;;14.52;10.60;;;;;;;16.50;100.00;95722.41;1018442;29;20035;-69
2021/07/07 00:16:52;;;;;;;10.52;9.07;;;;;;;16.50;100.00;95714.47;1014730;29;20034;-69
2021/07/07 00:17:23;;;;;;;10.68;9.00;;;;;;;16.40;100.00;95698.81;1014666;29;20581;-69
2021/07/07 00:17:53;;;;;;;14.35;10.40;;;;;;;16.47;100.00;95713.19;1014895;29;20066;-69
2021/07/07 00:18:24;;;;;;;15.88;10.57;;;;;;;16.51;100.00;95713.38;1018899;29;20133;-69
2021/07/07 00:18:57;;;;;;;11.43;9.02;;;;;;;16.49;100.00;95708.38;1018817;29;20040;-69
2021/07/07 00:19:28;;;;;;;17.95;10.07;;;;;;;16.43;100.00;95708.78;1018117;29;20454;-69
2021/07/07 00:19:58;;;;;;;13.45;9.13;;;;;;;16.49;100.00;95710.25;1018811;29;20039;-69
2021/07/07 00:20:36;;;;;;;12.57;9.80;;;;;;;16.43;100.00;95711.44;1022386;29;20460;-70
2021/07/07 00:21:08;;;;;;;13.45;9.40;;;;;;;16.50;100.00;95720.56;1022456;29;20045;-69
2021/07/07 00:21:39;;;;;;;12.98;10.10;;;;;;;16.49;100.00;95720.84;1021502;29;20029;-69
2021/07/07 00:22:09;;;;;;;10.77;9.63;;;;;;;16.50;100.00;95712.59;1021484;29;20061;-69
2021/07/07 00:22:40;;;;;;;10.73;8.88;;;;;;;16.52;100.00;95722.09;1018810;29;20036;-69
2021/07/07 00:23:11;;;;;;;13.55;9.27;;;;;;;16.45;100.00;95715.34;1018268;29;20533;-69
2021/07/07 00:23:41;;;;;;;11.10;9.43;;;;;;;16.52;100.00;95728.19;1014931;29;20027;-69
2021/07/07 00:24:12;;;;;;;13.55;9.73;;;;;;;16.50;100.00;95725.06;1015062;29;20031;-69
2021/07/07 00:24:42;;;;;;;13.00;9.98;;;;;;;16.45;100.00;95719.88;1014745;29;20032;-69
2021/07/07 00:25:13;;;;;;;15.00;10.35;;;;;;;16.53;100.00;95728.97;1018857;29;20024;-70
2021/07/07 00:25:43;;;;;;;12.57;9.77;;;;;;;16.52;100.00;95724.75;1018762;29;20095;-69
2021/07/07 00:26:14;;;;;;;11.35;9.45;;;;;;;16.50;100.00;95723.19;1014726;29;20036;-69
2021/07/07 00:26:44;;;;;;;15.65;9.52;;;;;;;16.53;100.00;95732.38;1014525;29;20043;-69
2021/07/07 00:27:15;;;;;;;12.55;8.98;;;;;;;16.53;100.00;95732.38;1010560;29;20037;-70
2021/07/07 00:27:45;;;;;;;11.98;8.88;;;;;;;16.52;100.00;95720.22;1010589;29;20036;-69
2021/07/07 00:28:15;;;;;;;10.63;8.75;;;;;;;16.54;100.00;95728.69;1014731;29;20032;-68
2021/07/07 00:28:49;;;;;;;13.38;9.30;;;;;;;16.54;100.00;95728.69;1018803;29;20434;-69
2021/07/07 00:29:19;;;;;;;12.95;9.32;;;;;;;16.53;100.00;95726.31;1018643;29;20038;-69
2021/07/07 00:29:51;;;;;;;11.60;8.82;;;;;;;16.54;100.00;95725.25;1018115;29;20020;-69
2021/07/07 00:30:21;;;;;;;10.52;8.07;;;;;;;16.53;100.00;95732.38;1019447;29;20074;-69
2021/07/07 00:30:52;;;;;;;12.48;9.55;;;;;;;16.45;100.00;95718.00;1026413;28;20404;-69
2021/07/07 00:31:23;;;;;;;12.57;9.88;;;;;;;16.49;100.00;95720.84;1025847;28;20397;-69
2021/07/07 00:31:53;;;;;;;20.48;11.93;;;;;;;16.53;100.00;95726.31;1022580;29;20015;-69
2021/07/07 00:32:24;;;;;;;16.20;12.07;;;;;;;16.48;100.00;95719.28;1018646;29;20019;-70
2021/07/07 00:32:55;;;;;;;13.77;10.23;;;;;;;16.55;100.00;95724.16;1013166;29;20024;-69
2021/07/07 00:33:25;;;;;;;13.02;9.27;;;;;;;16.52;100.00;95719.47;1015806;29;20025;-69
2021/07/07 00:33:56;;;;;;;13.52;9.10;;;;;;;16.54;100.00;95718.09;1022844;29;20047;-69
2021/07/07 00:34:26;;;;;;;14.00;9.15;;;;;;;16.55;100.00;95722.28;1022757;29;20023;-69
2021/07/07 00:34:57;;;;;;;12.85;9.27;;;;;;;16.55;100.00;95724.16;1022277;29;20024;-70
2021/07/07 00:35:28;;;;;;;15.07;9.40;;;;;;;16.54;100.00;95726.03;1014704;29;20036;-69
2021/07/07 00:35:58;;;;;;;14.57;9.82;;;;;;;16.54;100.00;95718.09;1014971;29;20530;-69
2021/07/07 00:36:29;;;;;;;12.00;9.02;;;;;;;16.53;100.00;95716.50;1016896;29;20148;-70
2021/07/07 00:36:59;;;;;;;10.13;8.75;;;;;;;16.54;100.00;95717.31;1011126;29;20304;-68
2021/07/07 00:37:30;;;;;;;15.15;8.95;;;;;;;16.55;100.00;95714.34;1014126;29;20024;-69
2021/07/07 00:38:04;;;;;;;12.35;8.27;;;;;;;16.56;100.00;95712.47;1011630;29;20013;-69
2021/07/07 00:38:34;;;;;;;13.73;10.18;;;;;;;16.55;100.00;95713.56;1015029;29;20044;-69
2021/07/07 00:39:07;;;;;;;13.00;8.75;;;;;;;16.55;100.00;95719.63;1018722;29;20031;-69
2021/07/07 00:39:38;;;;;;;10.63;8.30;;;;;;;16.56;100.00;95713.25;1014828;29;20031;-69
2021/07/07 00:40:09;;;;;;;10.60;8.63;;;;;;;16.56;100.00;95710.59;1010408;29;20025;-69
2021/07/07 00:40:41;;;;;;;11.70;8.38;;;;;;;16.57;100.00;95709.53;1010756;29;20051;-68
2021/07/07 00:41:11;;;;;;;12.32;9.38;;;;;;;16.59;100.00;95715.28;1011660;29;20025;-70
2021/07/07 00:41:45;;;;;;;13.13;8.73;;;;;;;16.58;100.00;95716.38;1018596;29;20020;-70
2021/07/07 00:42:15;;;;;;;11.98;8.85;;;;;;;16.59;100.00;95717.94;1024305;28;20019;-69
2021/07/07 00:42:48;;;;;;;13.32;9.13;;;;;;;16.52;100.00;95709.63;1023208;29;20039;-69
2021/07/07 00:43:19;;;;;;;12.25;9.57;;;;;;;16.59;100.00;95720.59;1023925;28;20504;-69
2021/07/07 00:43:49;;;;;;;14.73;9.55;;;;;;;16.60;100.00;95724.03;1019187;29;20024;-69
2021/07/07 00:44:20;;;;;;;14.50;9.20;;;;;;;16.59;100.00;95723.25;1022928;29;20026;-69
2021/07/07 00:44:50;;;;;;;10.93;7.80;;;;;;;16.59;100.00;95730.41;1021374;29;20019;-68
2021/07/07 00:45:21;;;;;;;14.10;8.43;;;;;;;16.59;100.00;95725.13;1014892;29;20518;-68
2021/07/07 00:45:51;;;;;;;10.75;7.47;;;;;;;16.58;100.00;95732.28;1014871;29;20028;-69
2021/07/07 00:46:22;;;;;;;8.52;7.10;;;;;;;16.56;100.00;95729.13;1015203;29;20434;-68
2021/07/07 00:46:52;;;;;;;11.13;7.13;;;;;;;16.57;100.00;95732.59;1016436;29;20085;-69
2021/07/07 00:47:22;;;;;;;10.10;6.82;;;;;;;16.53;100.00;95727.09;1022053;29;20026;-69
2021/07/07 00:47:53;;;;;;;10.18;6.70;;;;;;;16.55;100.00;95738.19;1022705;29;20048;-69
2021/07/07 00:48:23;;;;;;;7.30;6.47;;;;;;;16.53;100.00;95737.69;1020054;29;20023;-69
2021/07/07 00:48:54;;;;;;;9.85;6.85;;;;;;;16.54;100.00;95744.56;1016918;29;20024;-69
2021/07/07 00:49:24;;;;;;;6.85;5.72;;;;;;;16.54;100.00;95733.97;1014432;29;20024;-69
2021/07/07 00:49:55;;;;;;;8.50;5.47;;;;;;;16.52;100.00;95736.13;1013850;29;20105;-69
2021/07/07 00:50:25;;;;;;;9.40;6.00;;;;;;;16.46;100.00;95722.25;1014581;29;20047;-68
2021/07/07 00:50:56;;;;;;;6.82;5.85;;;;;;;16.54;100.00;95733.19;1016306;29;20024;-69
2021/07/07 00:51:27;;;;;;;10.73;7.65;;;;;;;16.47;100.00;95718.50;1022654;29;20481;-69
2021/07/07 00:51:58;;;;;;;8.88;6.35;;;;;;;16.45;100.00;95719.88;1013522;29;20020;-69
2021/07/07 00:52:28;;;;;;;8.70;6.20;;;;;;;16.53;100.00;95727.09;1008452;29;20024;-69
2021/07/07 00:52:58;;;;;;;10.23;6.35;;;;;;;16.46;100.00;95721.44;1015051;29;20401;-70
2021/07/07 00:53:35;;;;;;;7.97;5.47;;;;;;;16.52;100.00;95730.84;1014984;29;20031;-69
2021/07/07 00:54:05;;;;;;;7.20;5.45;;;;;;;16.53;100.00;95732.38;1010796;29;20032;-69
2021/07/07 00:54:36;;;;;;;8.27;5.82;;;;;;;16.54;100.00;95735.84;1014995;29;20398;-69
2021/07/07 00:55:13;;;;;;;7.35;5.45;;;;;;;16.53;100.00;95737.69;1015311;29;20131;-69
2021/07/07 00:55:43;;;;;;;8.10;6.20;;;;;;;16.55;100.00;95740.06;1014312;29;20111;-69
2021/07/07 00:56:14;;;;;;;6.95;5.45;;;;;;;16.55;100.00;95745.34;1007819;29;20041;-70
2021/07/07 00:56:45;;;;;;;8.30;5.85;;;;;;;16.51;100.00;95742.53;1010944;29;20044;-69
2021/07/07 00:57:19;;;;;;;7.97;6.30;;;;;;;16.45;100.00;95738.41;1009779;29;20036;-69
2021/07/07 00:57:50;;;;;;;9.07;6.28;;;;;;;16.47;100.00;95739.69;1010977;29;20021;-68
2021/07/07 00:58:23;;;;;;;8.45;5.53;;;;;;;16.47;100.00;95746.84;1003259;29;20037;-69
2021/07/07 00:58:57;;;;;;;9.07;6.03;;;;;;;16.48;100.00;95751.06;1008960;29;20021;-69
2021/07/07 00:59:27;;;;;;;6.60;5.15;;;;;;;16.48;100.00;95753.72;1013175;29;20035;-69
2021/07/07 00:59:58;;;;;;;6.00;4.65;;;;;;;16.37;100.00;95734.63;1018023;29;20030;-68
2021/07/07 01:00:28;;;;;;;5.90;5.05;;;;;;;16.44;100.00;95750.88;1018463;29;20020;-66
2021/07/07 01:00:59;;;;;;;7.72;5.30;;;;;;;16.37;100.00;95731.19;1017227;29;20019;-69
2021/07/07 01:01:29;;;;;;;7.13;4.88;;;;;;;16.47;100.00;95758.22;1018756;29;20078;-70
2021/07/07 01:02:01;;;;;;;9.88;6.35;;;;;;;16.40;100.00;95738.53;1019080;29;20027;-69
2021/07/07 01:02:33;;;;;;;8.00;4.70;;;;;;;16.43;100.00;95751.97;1019846;29;20016;-69
2021/07/07 01:03:06;;;;;;;8.35;5.45;;;;;;;16.41;100.00;95740.09;1018911;29;20024;-69
2021/07/07 01:03:36;;;;;;;7.78;5.28;;;;;;;16.44;100.00;95752.75;1019016;29;20024;-69
2021/07/07 01:04:07;;;;;;;9.23;6.05;;;;;;;16.45;100.00;95747.13;1016821;29;20451;-70
2021/07/07 01:04:37;;;;;;;7.00;4.30;;;;;;;16.42;100.00;95749.59;1018166;29;20047;-70
2021/07/07 01:05:09;;;;;;;10.20;4.50;;;;;;;16.44;100.00;95755.41;1014887;29;20024;-69
2021/07/07 01:05:39;;;;;;;4.93;4.40;;;;;;;16.43;100.00;95753.81;1014309;29;20089;-69
2021/07/07 01:06:10;;;;;;;7.05;5.05;;;;;;;16.42;100.00;95750.38;1014993;29;20040;-69
2021/07/07 01:06:40;;;;;;;9.75;6.35;;;;;;;16.37;100.00;95744.44;1018845;29;20035;-68
2021/07/07 01:07:11;;;;;;;7.75;5.28;;;;;;;16.45;100.00;95757.72;1022642;29;20019;-70
2021/07/07 01:07:45;;;;;;;8.45;5.47;;;;;;;16.43;100.00;95748.50;1019145;29;20047;-69
2021/07/07 01:08:15;;;;;;;6.18;5.18;;;;;;;16.45;100.00;95756.97;1014903;29;20016;-70
2021/07/07 01:08:46;;;;;;;7.55;6.00;;;;;;;16.41;100.00;95750.69;1014764;29;20032;-69
2021/07/07 01:09:17;;;;;;;7.43;5.10;;;;;;;16.40;100.00;95754.44;1014615;29;20035;-69
2021/07/07 01:09:47;;;;;;;7.88;4.50;;;;;;;16.40;100.00;95755.22;1007462;29;20044;-69
2021/07/07 01:10:18;;;;;;;8.52;5.65;;;;;;;16.40;100.00;95752.56;1007365;29;20036;-69
2021/07/07 01:10:48;;;;;;;10.10;6.07;;;;;;;16.34;100.00;95737.09;1007753;29;20085;-69
2021/07/07 01:11:19;;;;;;;8.98;5.65;;;;;;;16.42;100.00;95758.34;1016306;29;20116;-69
2021/07/07 01:11:49;;;;;;;10.45;5.55;;;;;;;16.34;100.00;95740.50;1011006;29;20035;-69
2021/07/07 01:12:19;;;;;;;8.57;4.47;;;;;;;16.40;100.00;95749.91;1010929;29;20029;-69
2021/07/07 01:12:53;;;;;;;5.65;4.72;;;;;;;16.38;100.00;95743.34;1008602;29;20116;-69
2021/07/07 01:13:23;;;;;;;6.75;5.38;;;;;;;16.41;100.00;95750.69;1014927;29;20016;-70
2021/07/07 01:13:54;;;;;;;9.23;6.03;;;;;;;16.42;100.00;95750.38;1015018;29;20035;-69
2021/07/07 01:14:24;;;;;;;10.60;5.60;;;;;;;16.43;100.00;95753.81;1010313;29;20028;-68
2021/07/07 01:14:55;;;;;;;7.97;5.15;;;;;;;16.43;100.00;95753.81;1007081;29;20415;-69
2021/07/07 01:15:25;;;;;;;7.28;5.55;;;;;;;16.45;100.00;95755.09;1010878;29;20029;-69
2021/07/07 01:15:56;;;;;;;8.32;5.50;;;;;;;16.38;100.00;95746.00;1010824;29;20037;-69
2021/07/07 01:16:27;;;;;;;7.18;5.70;;;;;;;16.37;100.00;95745.22;1014018;29;20109;-70
2021/07/07 01:17:04;;;;;;;10.63;5.32;;;;;;;16.46;100.00;95759.31;1010912;29;20076;-69
2021/07/07 01:17:35;;;;;;;5.30;4.22;;;;;;;16.46;100.00;95759.31;1003403;29;20021;-69
2021/07/07 01:18:05;;;;;;;9.00;5.95;;;;;;;16.45;100.00;95763.03;1010752;29;20028;-69
2021/07/07 01:18:36;;;;;;;7.35;6.53;;;;;;;16.49;100.00;95773.81;1011134;29;20033;-69
2021/07/07 01:19:07;;;;;;;11.13;6.50;;;;;;;16.52;100.00;95773.22;1013638;29;20099;-69
2021/07/07 01:19:37;;;;;;;8.18;5.60;;;;;;;16.52;100.00;95783.81;1014959;29;20028;-66
2021/07/07 01:20:10;;;;;;;6.22;4.70;;;;;;;16.52;100.00;95783.03;1013431;29;20063;-69
2021/07/07 01:20:41;;;;;;;7.78;5.60;;;;;;;16.53;100.00;95788.03;1018502;29;20056;-69
2021/07/07 01:21:11;;;;;;;6.75;5.32;;;;;;;16.49;100.00;95793.13;1019790;29;20031;-70
2021/07/07 01:21:44;;;;;;;7.10;5.45;;;;;;;16.52;100.00;95794.41;1019163;29;20279;-70
2021/07/07 01:22:15;;;;;;;10.07;5.65;;;;;;;16.52;100.00;95788.34;1022470;28;20030;-69
2021/07/07 01:22:48;;;;;;;5.50;4.90;;;;;;;16.48;100.00;95785.50;1019212;28;20079;-69
2021/07/07 01:23:19;;;;;;;9.60;5.07;;;;;;;16.49;100.00;95781.75;1022638;29;20031;-69
2021/07/07 01:23:50;;;;;;;5.30;4.75;;;;;;;16.49;100.00;95784.41;1023580;28;20062;-69
2021/07/07 01:24:20;;;;;;;7.47;5.15;;;;;;;16.44;100.00;95776.59;1018589;29;20031;-69
2021/07/07 01:24:52;;;;;;;6.63;4.57;;;;;;;16.48;100.00;95782.84;1018846;29;20028;-70
2021/07/07 01:25:22;;;;;;;5.60;4.68;;;;;;;16.38;100.00;95767.19;1018812;29;20035;-69
2021/07/07 01:25:53;;;;;;;5.50;4.72;;;;;;;16.44;100.00;95780.00;1018436;29;20027;-69
2021/07/07 01:26:23;;;;;;;6.90;4.45;;;;;;;16.45;100.00;95775.50;1015035;29;20035;-69
2021/07/07 01:26:56;;;;;;;10.40;5.72;;;;;;;16.39;100.00;95772.16;1018880;29;20032;-69
2021/07/07 01:27:32;;;;;;;5.13;4.60;;;;;;;16.48;100.00;95777.56;1016143;29;20043;-69
2021/07/07 01:28:05;;;;;;;7.30;5.75;;;;;;;16.46;100.00;95772.56;1022722;29;20094;-69
2021/07/07 01:28:38;;;;;;;7.03;5.15;;;;;;;16.46;100.00;95771.75;1022649;29;20719;-69
2021/07/07 01:29:12;;;;;;;5.88;5.25;;;;;;;16.47;100.00;95776.78;1022683;29;20039;-69
2021/07/07 01:29:42;;;;;;;9.23;4.55;;;;;;;16.49;100.00;95779.88;1018628;29;20132;-69
2021/07/07 01:30:17;;;;;;;9.57;5.72;;;;;;;16.41;100.00;95767.38;1021548;29;20058;-69
2021/07/07 01:30:48;;;;;;;5.50;4.32;;;;;;;16.45;100.00;95788.75;1021589;29;20108;-69
2021/07/07 01:31:18;;;;;;;5.57;4.95;;;;;;;16.45;100.00;95780.78;1020512;28;20075;-69
2021/07/07 01:31:48;;;;;;;8.02;5.38;;;;;;;16.45;100.00;95783.44;1022797;28;20382;-70
2021/07/07 01:32:19;;;;;;;7.15;4.63;;;;;;;16.44;100.00;95780.00;1022628;29;20397;-69
2021/07/07 01:32:52;;;;;;;6.40;4.43;;;;;;;16.46;100.00;95785.00;1018341;28;20421;-70
2021/07/07 01:33:23;;;;;;;8.93;4.38;;;;;;;16.44;100.00;95787.97;1024999;28;20583;-69
2021/07/07 01:33:53;;;;;;;5.70;4.85;;;;;;;16.45;100.00;95791.38;1020698;28;20031;-69
2021/07/07 01:34:24;;;;;;;6.75;4.50;;;;;;;16.38;100.00;95775.13;1026965;28;20027;-69
2021/07/07 01:34:54;;;;;;;6.18;4.00;;;;;;;16.44;100.00;95787.19;1025587;28;20037;-69
2021/07/07 01:35:25;;;;;;;6.07;4.38;;;;;;;16.43;100.00;95789.06;1020291;29;20632;-69
2021/07/07 01:35:55;;;;;;;5.50;4.22;;;;;;;16.33;100.00;95769.94;1018535;29;20035;-69
2021/07/07 01:36:26;;;;;;;8.00;5.07;;;;;;;16.45;100.00;95788.75;1014745;29;20040;-69
2021/07/07 01:36:56;;;;;;;8.73;5.72;;;;;;;16.46;100.00;95779.69;1013929;29;20024;-70
2021/07/07 01:37:27;;;;;;;7.32;4.72;;;;;;;16.48;100.00;95785.50;1010217;29;20030;-69
2021/07/07 01:37:58;;;;;;;6.25;5.07;;;;;;;16.44;100.00;95776.59;1018647;29;20091;-70
2021/07/07 01:38:28;;;;;;;6.68;5.32;;;;;;;16.49;100.00;95782.53;1019750;29;20438;-69
2021/07/07 01:38:59;;;;;;;7.82;6.18;;;;;;;16.49;100.00;95784.41;1019032;29;20055;-69
2021/07/07 01:39:29;;;;;;;5.35;4.07;;;;;;;16.47;100.00;95776.78;1018627;29;20413;-69
2021/07/07 01:39:59;;;;;;;8.25;5.40;;;;;;;16.49;100.00;95779.88;1020349;29;20216;-69
2021/07/07 01:40:31;;;;;;;6.63;4.95;;;;;;;16.48;100.00;95772.25;1019149;29;20069;-68
2021/07/07 01:41:02;;;;;;;5.70;4.53;;;;;;;16.41;100.00;95766.59;1012836;29;20044;-69
2021/07/07 01:41:32;;;;;;;5.70;4.85;;;;;;;16.46;100.00;95777.06;1018860;29;20023;-69
2021/07/07 01:42:03;;;;;;;9.43;6.30;;;;;;;16.40;100.00;95755.22;1016185;29;20057;-69
2021/07/07 01:42:33;;;;;;;5.55;4.05;;;;;;;16.42;100.00;95760.97;1019023;29;20649;-69
2021/07/07 01:43:04;;;;;;;5.85;3.78;;;;;;;16.41;100.00;95758.63;1022724;29;20568;-69
2021/07/07 01:43:34;;;;;;;5.32;3.78;;;;;;;16.43;100.00;95764.41;1021414;29;20491;-69
2021/07/07 01:44:06;;;;;;;8.25;4.15;;;;;;;16.43;100.00;95761.75;1012077;29;20671;-68
2021/07/07 01:44:36;;;;;;;5.78;4.35;;;;;;;16.43;100.00;95762.56;1012543;29;20180;-69
2021/07/07 01:45:08;;;;;;;13.73;6.63;;;;;;;16.39;100.00;95750.97;1018203;29;20050;-69
2021/07/07 01:45:38;;;;;;;8.05;5.30;;;;;;;16.43;100.00;95770.50;1013936;29;20024;-69
2021/07/07 01:46:09;;;;;;;6.10;4.85;;;;;;;16.42;100.00;95768.16;1018017;29;20067;-69
2021/07/07 01:46:39;;;;;;;6.10;4.88;;;;;;;16.39;100.00;95758.16;1022562;29;20078;-69
2021/07/07 01:47:10;;;;;;;5.20;4.43;;;;;;;16.45;100.00;95773.63;1019488;29;20090;-66
2021/07/07 01:47:40;;;;;;;11.45;5.25;;;;;;;16.44;100.00;95769.41;1017474;29;20032;-69
2021/07/07 01:48:11;;;;;;;6.22;5.05;;;;;;;16.46;100.00;95774.41;1018544;29;20059;-69
2021/07/07 01:48:41;;;;;;;4.95;4.45;;;;;;;16.44;100.00;95769.41;1018233;29;20076;-70
2021/07/07 01:49:14;;;;;;;9.15;6.30;;;;;;;16.44;100.00;95782.66;1022487;29;20047;-69
2021/07/07 01:49:45;;;;;;;7.15;6.15;;;;;;;16.44;100.00;95773.94;1018688;29;20075;-69
2021/07/07 01:50:15;;;;;;;8.50;5.68;;;;;;;16.40;100.00;95771.09;1019067;29;20052;-69
2021/07/07 01:50:46;;;;;;;9.15;5.32;;;;;;;16.46;100.00;95779.69;1018663;29;20043;-69
2021/07/07 01:51:17;;;;;;;10.73;5.65;;;;;;;16.46;100.00;95779.69;1014481;29;20030;-69
2021/07/07 01:51:48;;;;;;;9.13;5.68;;;;;;;16.45;100.00;95781.56;1014613;29;20024;-69
2021/07/07 01:52:18;;;;;;;12.73;7.20;;;;;;;16.44;100.00;95785.31;1020641;28;20390;-69
2021/07/07 01:52:49;;;;;;;10.30;5.72;;;;;;;16.42;100.00;95778.75;1026289;28;20381;-69
2021/07/07 01:53:19;;;;;;;8.07;6.28;;;;;;;16.41;100.00;95785.91;1022615;29;20027;-69
2021/07/07 01:53:50;;;;;;;9.32;5.05;;;;;;;16.33;100.00;95776.03;1021337;29;20514;-68
2021/07/07 01:54:20;;;;;;;8.95;5.75;;;;;;;16.39;100.00;95779.34;1022531;29;20039;-69
2021/07/07 01:54:50;;;;;;;7.20;5.65;;;;;;;16.41;100.00;95783.25;1022401;28;20134;-69
2021/07/07 01:55:22;;;;;;;7.68;5.15;;;;;;;16.35;100.00;95770.41;1026434;28;20030;-68
2021/07/07 01:55:55;;;;;;;6.03;5.30;;;;;;;16.38;100.00;95778.56;1022299;29;20015;-69
2021/07/07 01:56:28;;;;;;;8.02;5.35;;;;;;;16.36;100.00;95782.56;1018346;29;20024;-70
2021/07/07 01:56:58;;;;;;;9.07;5.88;;;;;;;16.36;100.00;95777.28;1018426;29;20103;-69
2021/07/07 01:57:43;;;;;;;6.90;5.80;;;;;;;16.36;100.00;95767.47;1017418;29;20032;-69
2021/07/07 01:58:13;;;;;;;7.72;4.78;;;;;;;16.35;100.00;95773.84;1014613;29;20020;-69
2021/07/07 01:58:44;;;;;;;9.20;5.95;;;;;;;16.38;100.00;95775.13;1010485;29;20103;-68
2021/07/07 01:59:14;;;;;;;8.38;6.18;;;;;;;16.35;100.00;95767.78;1013684;29;20112;-69
2021/07/07 01:59:44;;;;;;;8.80;6.18;;;;;;;16.34;100.00;95772.28;1014607;29;20032;-69
2021/07/07 02:00:20;;;;;;;7.00;5.50;;;;;;;16.34;100.00;95768.88;1014703;29;20032;-69
2021/07/07 02:00:51;;;;;;;11.05;6.78;;;;;;;16.33;100.00;95769.94;1019116;28;20024;-69
2021/07/07 02:01:21;;;;;;;8.65;5.80;;;;;;;16.31;100.00;95774.75;1026418;28;20030;-68
2021/07/07 02:01:52;;;;;;;6.70;5.65;;;;;;;16.32;100.00;95774.44;1021779;29;20026;-68
2021/07/07 02:02:22;;;;;;;8.68;5.63;;;;;;;16.29;100.00;95769.75;1019199;29;20050;-69
2021/07/07 02:02:53;;;;;;;9.20;6.18;;;;;;;16.29;100.00;95771.59;1018299;29;20449;-69
2021/07/07 02:03:23;;;;;;;6.85;5.20;;;;;;;16.30;100.00;95773.16;1014596;29;20032;-70
2021/07/07 02:03:54;;;;;;;7.93;5.10;;;;;;;16.25;100.00;95763.47;1013669;29;20027;-70
2021/07/07 02:04:25;;;;;;;8.38;6.05;;;;;;;16.32;100.00;95771.00;1006619;29;20028;-70
2021/07/07 02:04:55;;;;;;;6.57;4.95;;;;;;;16.30;100.00;95767.88;1006833;29;20406;-69
2021/07/07 02:05:28;;;;;;;7.00;5.55;;;;;;;16.24;100.00;95765.34;1010686;29;20032;-70
2021/07/07 02:05:59;;;;;;;4.93;4.43;;;;;;;16.29;100.00;95769.75;1008007;29;20021;-70
2021/07/07 02:06:29;;;;;;;8.15;5.32;;;;;;;16.31;100.00;95772.09;1010584;29;20461;-70
2021/07/07 02:07:00;;;;;;;7.43;5.32;;;;;;;16.34;100.00;95771.50;1011412;29;20039;-68
2021/07/07 02:07:36;;;;;;;8.25;5.65;;;;;;;16.34;100.00;95768.88;1012518;29;20032;-70
2021/07/07 02:08:07;;;;;;;7.72;5.88;;;;;;;16.23;100.00;95753.19;1021200;29;20034;-70
2021/07/07 02:08:38;;;;;;;10.80;6.00;;;;;;;16.33;100.00;95773.38;1019057;29;20106;-70
2021/07/07 02:09:08;;;;;;;5.88;4.90;;;;;;;16.32;100.00;95768.38;1014166;29;20036;-70
2021/07/07 02:09:39;;;;;;;6.63;5.18;;;;;;;16.35;100.00;95762.47;1015508;29;20032;-70
2021/07/07 02:10:12;;;;;;;8.32;6.10;;;;;;;16.25;100.00;95756.31;1015316;29;20032;-70
2021/07/07 02:10:42;;;;;;;7.78;5.45;;;;;;;16.34;100.00;95771.50;1011751;29;20036;-68
2021/07/07 02:11:12;;;;;;;6.00;5.40;;;;;;;16.35;100.00;95773.84;1018864;29;20031;-70
2021/07/07 02:11:43;;;;;;;9.20;6.13;;;;;;;16.35;100.00;95778.38;1011485;29;20036;-70
2021/07/07 02:12:13;;;;;;;5.95;5.30;;;;;;;16.36;100.00;95774.63;1011677;29;20077;-70
2021/07/07 02:12:44;;;;;;;8.55;5.63;;;;;;;16.35;100.00;95771.19;1010892;29;20024;-70
2021/07/07 02:13:17;;;;;;;6.57;5.32;;;;;;;16.34;100.00;95769.66;1007492;29;20081;-70
2021/07/07 02:13:50;;;;;;;12.80;5.40;;;;;;;16.34;100.00;95771.50;1007616;29;20029;-70
2021/07/07 02:14:20;;;;;;;8.65;5.55;;;;;;;16.33;100.00;95772.56;1014559;29;20160;-70
2021/07/07 02:14:54;;;;;;;8.98;5.60;;;;;;;16.32;100.00;95768.38;1012182;29;20128;-69
2021/07/07 02:15:26;;;;;;;7.40;5.55;;;;;;;16.30;100.00;95763.38;1011275;29;20450;-70
2021/07/07 02:15:56;;;;;;;8.93;5.40;;;;;;;16.32;100.00;95763.06;1008100;29;20519;-70
2021/07/07 02:16:27;;;;;;;6.72;5.43;;;;;;;16.33;100.00;95761.97;1007712;29;20037;-70
2021/07/07 02:16:57;;;;;;;7.35;5.30;;;;;;;16.34;100.00;95763.56;1008607;29;20404;-70
2021/07/07 02:17:31;;;;;;;10.05;5.78;;;;;;;16.33;100.00;95759.34;1010255;29;20036;-70
2021/07/07 02:18:04;;;;;;;10.85;6.25;;;;;;;16.29;100.00;95753.06;1014491;29;20111;-70
2021/07/07 02:18:35;;;;;;;10.18;5.78;;;;;;;16.31;100.00;95756.22;1015453;29;20773;-70
2021/07/07 02:19:05;;;;;;;8.73;4.78;;;;;;;16.32;100.00;95757.78;1012248;29;20032;-70
2021/07/07 02:19:36;;;;;;;14.68;5.85;;;;;;;16.32;100.00;95758.56;1014618;29;20399;-70
2021/07/07 02:20:07;;;;;;;11.27;6.50;;;;;;;16.33;100.00;95759.34;1011395;29;20725;-70
2021/07/07 02:20:42;;;;;;;11.70;6.32;;;;;;;16.34;100.00;95755.63;1007942;29;20832;-70
2021/07/07 02:21:12;;;;;;;13.82;6.60;;;;;;;16.37;100.00;95755.03;1009478;29;20024;-71
2021/07/07 02:21:43;;;;;;;8.55;6.75;;;;;;;16.36;100.00;95759.53;1011182;29;20037;-70
2021/07/07 02:22:13;;;;;;;9.60;5.75;;;;;;;16.35;100.00;95757.97;1011530;29;20573;-70
2021/07/07 02:22:44;;;;;;;6.95;4.93;;;;;;;16.27;100.00;95750.75;1011073;29;20037;-70
2021/07/07 02:23:14;;;;;;;6.57;5.25;;;;;;;16.29;100.00;95750.44;1019286;29;20035;-70
2021/07/07 02:23:45;;;;;;;7.47;6.07;;;;;;;16.32;100.00;95750.59;1019089;29;20132;-70
2021/07/07 02:24:15;;;;;;;8.18;6.53;;;;;;;16.35;100.00;95754.53;1019326;29;20032;-70